Time;durP1;ratioP1;P1;durP2;ratioP2;P2;SDS_P1;SDS_P2;PMS_P1;PMS_P2;Temp;Humidity;BMP_temperature;BMP_pressure;BME280_temperature;BME280_humidity;BME280_pressure;Samples;Min_cycle;Max_cycle;Signal;HPM_P1;HPM_P2
2021/10/10 00:01:55;;;;;;;4.25;3.30;;;29.50;21.00;;;;;;5108279;28;20073;-68
2021/10/10 00:04:22;;;;;;;7.88;3.13;;;29.40;21.20;;;;;;5074334;28;20092;-67
2021/10/10 00:06:48;;;;;;;3.08;1.15;;;29.40;21.40;;;;;;5108226;28;20067;-70
2021/10/10 00:09:14;;;;;;;7.55;1.17;;;29.30;20.70;;;;;;5109810;28;20446;-65
2021/10/10 00:11:41;;;;;;;20.67;3.47;;;29.30;21.70;;;;;;5095100;28;20085;-66
2021/10/10 00:14:07;;;;;;;7.53;1.27;;;29.40;39.40;;;;;;5094198;28;20028;-63
2021/10/10 00:16:33;;;;;;;13.52;3.20;;;29.10;21.40;;;;;;5113831;28;20553;-64
2021/10/10 00:19:00;;;;;;;23.98;4.65;;;29.10;21.70;;;;;;5095463;28;20083;-64
2021/10/10 00:21:26;;;;;;;9.30;1.73;;;29.10;21.60;;;;;;5095238;28;20080;-69
2021/10/10 00:23:52;;;;;;;3.83;1.20;;;28.50;30.00;;;;;;5095515;28;20138;-66
2021/10/10 00:26:19;;;;;;;3.78;1.10;;;29.00;21.30;;;;;;5114017;28;20084;-66
2021/10/10 00:28:45;;;;;;;6.20;1.00;;;29.00;21.30;;;;;;5096397;28;20162;-71
2021/10/10 00:31:12;;;;;;;7.35;1.23;;;28.90;21.40;;;;;;5097519;28;20091;-67
2021/10/10 00:33:38;;;;;;;5.28;1.02;;;28.90;21.50;;;;;;5112706;28;20080;-67
2021/10/10 00:36:04;;;;;;;8.20;1.45;;;28.80;21.30;;;;;;5113356;28;20078;-67
2021/10/10 00:40:06;;;;;;;5.38;1.70;;;28.70;20.90;;;;;;5130535;27;20191;-69
2021/10/10 00:42:33;;;;;;;7.10;1.35;;;28.70;21.30;;;;;;5109127;28;20553;-65
2021/10/10 00:44:59;;;;;;;2.53;1.33;;;28.60;21.50;;;;;;5114421;28;20129;-69
2021/10/10 00:47:26;;;;;;;14.70;1.98;;;28.60;21.60;;;;;;5060912;28;20107;-68
2021/10/10 00:49:52;;;;;;;11.65;1.90;;;28.50;22.20;;;;;;5080371;28;20738;-65
2021/10/10 00:52:19;;;;;;;13.65;1.50;;;28.50;21.80;;;;;;5076999;28;20171;-70
2021/10/10 00:54:47;;;;;;;11.85;1.73;;;28.40;22.00;;;;;;5083209;28;20077;-66
2021/10/10 00:57:15;;;;;;;9.23;1.33;;;28.30;21.90;;;;;;5066644;28;20089;-67
2021/10/10 00:59:45;;;;;;;19.80;1.88;;;28.20;22.10;;;;;;5093325;28;20171;-65
2021/10/10 01:02:15;;;;;;;17.95;2.72;;;28.20;22.40;;;;;;5095327;28;20554;-73
2021/10/10 01:04:42;;;;;;;56.05;4.68;;;28.10;22.30;;;;;;5091826;28;20553;-65
2021/10/10 01:07:09;;;;;;;30.48;3.80;;;28.00;23.40;;;;;;5071335;28;20111;-70
2021/10/10 01:09:36;;;;;;;28.80;3.55;;;27.90;23.30;;;;;;5072002;28;20546;-64
2021/10/10 01:12:05;;;;;;;5.35;2.03;;;27.80;23.60;;;;;;5078072;28;20097;-67
2021/10/10 01:14:36;;;;;;;16.92;3.22;;;27.80;22.60;;;;;;5072879;28;20132;-70
2021/10/10 01:17:03;;;;;;;12.52;2.38;;;27.80;23.70;;;;;;5090153;28;20089;-66
2021/10/10 01:19:33;;;;;;;9.80;2.72;;;27.70;23.10;;;;;;5073423;28;20174;-67
2021/10/10 01:22:04;;;;;;;12.77;2.80;;;27.60;23.30;;;;;;5072988;28;20091;-69
2021/10/10 01:24:30;;;;;;;51.10;6.07;;;27.40;24.60;;;;;;5093856;28;20103;-68
2021/10/10 01:26:57;;;;;;;26.95;4.32;;;27.30;24.30;;;;;;5074446;28;20207;-65
2021/10/10 01:29:23;;;;;;;36.33;4.90;;;26.70;39.80;;;;;;5075804;28;20566;-64
2021/10/10 01:31:50;;;;;;;20.95;4.57;;;27.10;24.40;;;;;;5077462;28;20137;-66
2021/10/10 01:34:17;;;;;;;43.15;6.88;;;27.00;24.80;;;;;;5074130;28;20076;-65
2021/10/10 01:36:43;;;;;;;18.63;4.00;;;26.90;25.00;;;;;;5075749;28;20080;-65
2021/10/10 01:39:09;;;;;;;20.23;3.88;;;26.80;24.80;;;;;;5058534;28;20212;-66
2021/10/10 01:41:36;;;;;;;12.93;3.67;;;26.80;25.00;;;;;;5035944;28;20084;-66
2021/10/10 01:44:02;;;;;;;111.43;10.38;;;26.70;25.00;;;;;;5051162;28;20479;-68
2021/10/10 01:46:29;;;;;;;23.42;5.65;;;26.70;25.80;;;;;;5066212;28;20111;-65
2021/10/10 01:48:55;;;;;;;32.38;6.20;;;26.60;25.00;;;;;;5067587;28;20058;-66
2021/10/10 01:51:21;;;;;;;11.18;5.25;;;26.60;25.60;;;;;;5034774;28;20146;-66
2021/10/10 01:53:48;;;;;;;33.58;5.68;;;26.60;25.90;;;;;;5054942;28;20074;-66
2021/10/10 01:56:16;;;;;;;10.93;4.47;;;26.50;25.50;;;;;;5036847;28;20073;-65
2021/10/10 01:58:43;;;;;;;17.17;4.93;;;26.50;25.50;;;;;;5036362;28;20132;-66
2021/10/10 02:01:09;;;;;;;15.98;5.10;;;26.40;35.40;;;;;;5056535;28;20089;-64
2021/10/10 02:03:36;;;;;;;16.20;5.03;;;;;;;;;;5056318;28;20072;-65
2021/10/10 02:06:02;;;;;;;11.73;4.63;;;;;;;;;;5038902;28;20337;-65
2021/10/10 02:08:29;;;;;;;14.02;4.70;;;26.30;25.90;;;;;;5054180;28;20025;-64
2021/10/10 02:10:55;;;;;;;15.00;4.93;;;26.20;30.10;;;;;;5038318;28;20522;-67
2021/10/10 02:13:21;;;;;;;17.05;5.20;;;26.20;26.30;;;;;;5038131;28;20675;-69
2021/10/10 02:15:48;;;;;;;16.38;4.82;;;26.10;26.20;;;;;;5038571;28;20078;-68
2021/10/10 02:18:14;;;;;;;12.93;4.53;;;26.00;26.10;;;;;;5037558;28;20093;-69
2021/10/10 02:20:40;;;;;;;13.63;5.07;;;26.00;26.20;;;;;;5056585;28;20555;-69
2021/10/10 02:23:07;;;;;;;12.45;3.90;;;25.90;26.70;;;;;;5045165;28;20109;-68
2021/10/10 02:25:33;;;;;;;7.47;3.17;;;25.60;26.50;;;;;;5056384;28;20435;-68
2021/10/10 02:28:00;;;;;;;14.10;3.88;;;25.80;26.50;;;;;;5040151;28;20039;-66
2021/10/10 02:30:26;;;;;;;10.00;3.55;;;25.80;26.30;;;;;;5043215;28;20364;-68
2021/10/10 02:32:53;;;;;;;19.98;4.80;;;25.80;25.40;;;;;;5047746;28;20140;-68
2021/10/10 02:35:19;;;;;;;14.93;4.63;;;25.80;25.90;;;;;;5044125;28;20092;-68
2021/10/10 02:37:46;;;;;;;14.43;5.45;;;26.10;26.60;;;;;;5030517;28;20509;-68
2021/10/10 02:40:12;;;;;;;23.92;4.97;;;25.20;33.00;;;;;;5066368;28;20134;-67
2021/10/10 02:42:39;;;;;;;16.50;5.18;;;25.70;26.30;;;;;;5062416;28;20068;-68
2021/10/10 02:45:06;;;;;;;16.30;4.65;;;25.70;26.60;;;;;;5062741;28;20096;-67
2021/10/10 02:47:33;;;;;;;17.30;5.05;;;25.70;27.60;;;;;;5083306;28;20100;-67
2021/10/10 02:49:59;;;;;;;12.88;5.18;;;25.60;27.60;;;;;;5065680;28;20100;-69
2021/10/10 02:52:26;;;;;;;21.38;7.15;;;25.50;27.80;;;;;;5066431;28;20084;-68
2021/10/10 02:54:52;;;;;;;17.40;8.32;;;25.40;27.70;;;;;;5066390;28;20077;-69
2021/10/10 02:57:19;;;;;;;19.38;7.43;;;25.40;27.70;;;;;;5066248;28;20081;-69
2021/10/10 02:59:46;;;;;;;20.50;6.72;;;25.30;27.90;;;;;;5064662;28;20473;-69
2021/10/10 03:02:12;;;;;;;17.27;5.95;;;25.30;28.30;;;;;;5067219;28;20067;-69
2021/10/10 03:04:39;;;;;;;16.70;6.10;;;25.30;27.60;;;;;;5045957;28;20115;-66
2021/10/10 03:07:05;;;;;;;19.27;6.53;;;25.20;27.40;;;;;;5063166;28;20083;-67
2021/10/10 03:09:32;;;;;;;20.73;8.43;;;25.10;27.80;;;;;;5045991;28;20058;-69
2021/10/10 03:11:58;;;;;;;37.25;15.43;;;25.10;27.70;;;;;;5063842;28;20530;-68
2021/10/10 03:14:25;;;;;;;38.55;20.67;;;25.00;46.10;;;;;;5061308;28;20139;-69
2021/10/10 03:16:51;;;;;;;35.10;19.40;;;25.00;28.80;;;;;;5047137;28;20118;-68
2021/10/10 03:19:17;;;;;;;36.35;18.83;;;;;;;;;;5079188;28;20367;-69
2021/10/10 03:21:44;;;;;;;34.08;16.50;;;;;;;;;;5075750;28;20133;-68
2021/10/10 03:24:10;;;;;;;26.38;13.10;;;25.10;32.40;;;;;;5055397;28;20036;-71
2021/10/10 03:26:37;;;;;;;24.20;9.30;;;;;;;;;;5058822;28;20069;-69
2021/10/10 03:29:03;;;;;;;18.52;6.78;;;;;;;;;;5075187;28;20414;-67
2021/10/10 03:31:30;;;;;;;14.55;5.30;;;;;;;;;;5055645;28;20036;-67
2021/10/10 03:33:56;;;;;;;12.27;4.00;;;;;;;;;;5059556;28;20024;-68
2021/10/10 03:36:23;;;;;;;23.42;6.63;;;;;;;;;;5069650;28;20024;-67
2021/10/10 03:39:58;;;;;;;27.42;7.65;;;;;;;;;;5107179;27;20396;-69
2021/10/10 03:42:24;;;;;;;15.75;4.45;;;;;;;;;;5104694;28;20028;-73
2021/10/10 03:44:50;;;;;;;20.52;4.43;;;25.50;34.60;;;;;;5105595;28;20359;-71
2021/10/10 03:47:17;;;;;;;25.23;3.92;;;24.90;37.40;;;;;;5088303;28;20498;-69
2021/10/10 03:49:43;;;;;;;10.65;3.70;;;25.40;26.50;;;;;;5105873;28;20080;-70
2021/10/10 03:52:10;;;;;;;20.25;3.28;;;;;;;;;;5105222;28;20116;-70
2021/10/10 03:57:11;;;;;;;13.80;3.10;;;25.30;26.60;;;;;;5105982;28;20665;-67
2021/10/10 03:59:38;;;;;;;9.95;2.97;;;;;;;;;;5088319;28;20603;-69
2021/10/10 04:02:06;;;;;;;17.55;2.70;;;25.20;39.60;;;;;;5106769;28;20038;-69
2021/10/10 04:04:35;;;;;;;17.80;2.40;;;25.30;30.70;;;;;;5088876;28;20075;-71
2021/10/10 04:07:02;;;;;;;18.48;3.20;;;25.10;28.00;;;;;;5103848;28;20134;-70
2021/10/10 04:09:28;;;;;;;11.18;3.35;;;25.10;28.30;;;;;;5105151;28;20088;-71
2021/10/10 04:11:54;;;;;;;13.07;3.05;;;;;;;;;;5105537;28;20076;-69
2021/10/10 04:14:21;;;;;;;10.55;2.45;;;24.70;29.10;;;;;;5087970;28;20031;-71
2021/10/10 04:16:47;;;;;;;11.15;2.03;;;;;;;;;;5108645;28;20156;-69
2021/10/10 04:19:14;;;;;;;8.73;2.20;;;24.80;66.20;;;;;;5104239;28;20427;-69
2021/10/10 04:21:40;;;;;;;11.70;2.63;;;24.90;56.80;;;;;;5104123;28;20446;-68
2021/10/10 04:24:06;;;;;;;7.85;1.95;;;24.30;54.20;;;;;;5105410;28;20075;-68
2021/10/10 04:26:33;;;;;;;10.98;4.80;;;;;;;;;;5106342;28;20423;-71
2021/10/10 04:28:59;;;;;;;16.23;3.58;;;24.60;63.40;;;;;;5105087;28;20020;-69
2021/10/10 04:31:26;;;;;;;11.43;3.00;;;24.50;35.30;;;;;;5106123;28;20072;-71
2021/10/10 04:33:52;;;;;;;12.45;3.33;;;24.10;45.50;;;;;;5104876;28;20488;-69
2021/10/10 04:36:18;;;;;;;13.00;2.90;;;24.50;33.40;;;;;;5105875;28;20016;-71
2021/10/10 04:38:45;;;;;;;16.10;2.70;;;24.50;33.70;;;;;;5104498;28;20141;-69
2021/10/10 04:41:12;;;;;;;11.80;3.00;;;24.50;34.40;;;;;;5105571;28;20075;-68
2021/10/10 04:43:39;;;;;;;11.52;3.22;;;24.50;34.60;;;;;;5087462;28;20190;-66
2021/10/10 04:46:05;;;;;;;13.10;3.22;;;24.40;34.70;;;;;;5104389;28;20500;-71
2021/10/10 04:48:31;;;;;;;16.35;3.00;;;24.40;34.50;;;;;;5105666;28;20081;-71
2021/10/10 04:50:58;;;;;;;10.98;2.92;;;24.40;35.10;;;;;;5076061;28;20068;-71
2021/10/10 04:53:24;;;;;;;16.67;3.45;;;24.40;35.30;;;;;;5091209;28;20146;-69
2021/10/10 04:55:51;;;;;;;11.98;3.85;;;24.40;34.90;;;;;;5095497;28;20076;-70
2021/10/10 04:58:17;;;;;;;13.32;4.45;;;24.40;35.50;;;;;;5091873;28;20079;-69
2021/10/10 05:00:43;;;;;;;15.18;3.63;;;24.50;44.90;;;;;;5090644;28;20170;-67
2021/10/10 05:03:10;;;;;;;13.30;3.05;;;;;;;;;;5092435;28;20137;-67
2021/10/10 05:05:36;;;;;;;12.07;3.00;;;24.20;35.50;;;;;;5093115;28;20546;-68
2021/10/10 05:08:03;;;;;;;16.80;3.20;;;24.10;35.80;;;;;;5089048;28;20069;-67
2021/10/10 05:10:29;;;;;;;14.35;3.33;;;;;;;;;;5089146;28;20016;-68
2021/10/10 05:12:55;;;;;;;7.15;2.90;;;24.10;36.20;;;;;;5087800;28;20119;-69
2021/10/10 05:15:22;;;;;;;9.07;4.05;;;;;;;;;;5090893;28;20028;-69
2021/10/10 05:17:49;;;;;;;13.10;3.10;;;;;;;;;;5092543;28;20077;-68
2021/10/10 05:20:15;;;;;;;11.15;2.70;;;24.10;36.90;;;;;;5088725;28;20072;-69
2021/10/10 05:22:41;;;;;;;16.88;3.45;;;24.00;37.50;;;;;;5089877;28;20082;-68
2021/10/10 05:25:08;;;;;;;11.07;3.65;;;24.00;37.60;;;;;;5089479;28;20156;-70
2021/10/10 05:27:35;;;;;;;16.13;4.05;;;24.00;37.70;;;;;;5089108;28;20469;-69
2021/10/10 05:30:02;;;;;;;14.55;3.78;;;24.00;37.90;;;;;;5090026;28;20077;-70
2021/10/10 05:32:28;;;;;;;11.25;3.47;;;24.00;37.90;;;;;;5072798;28;20097;-72
2021/10/10 05:34:55;;;;;;;17.05;4.45;;;24.00;37.90;;;;;;5090946;28;20089;-71
2021/10/10 05:37:22;;;;;;;10.30;4.00;;;24.00;38.00;;;;;;5088399;28;20069;-69
2021/10/10 05:39:49;;;;;;;16.23;3.65;;;24.00;38.20;;;;;;5089674;28;20503;-72
2021/10/10 05:42:16;;;;;;;18.13;4.80;;;23.90;38.00;;;;;;5091770;28;20107;-70
2021/10/10 05:44:43;;;;;;;23.90;10.38;;;23.90;37.90;;;;;;5089430;28;20430;-71
2021/10/10 05:47:10;;;;;;;34.78;21.13;;;23.90;38.10;;;;;;5089914;28;20157;-71
2021/10/10 05:49:37;;;;;;;57.63;31.00;;;23.90;40.00;;;;;;5087893;28;20233;-73
2021/10/10 05:52:05;;;;;;;62.33;33.00;;;23.80;37.90;;;;;;5090970;28;20068;-71
2021/10/10 05:54:35;;;;;;;52.22;29.45;;;23.80;37.90;;;;;;5089301;28;20085;-70
2021/10/10 05:57:05;;;;;;;45.95;27.67;;;23.90;37.90;;;;;;5087203;28;20069;-69
2021/10/10 05:59:35;;;;;;;24.65;14.65;;;23.90;38.00;;;;;;5089106;28;20069;-70
2021/10/10 06:02:02;;;;;;;18.60;8.73;;;23.80;37.50;;;;;;5087643;28;20093;-71
2021/10/10 06:04:28;;;;;;;16.80;6.07;;;23.90;37.30;;;;;;5093020;28;20108;-69
2021/10/10 06:06:55;;;;;;;23.00;8.55;;;23.80;37.20;;;;;;5088296;28;20078;-68
2021/10/10 06:09:21;;;;;;;32.70;16.05;;;23.80;37.20;;;;;;5088337;28;20111;-68
2021/10/10 06:11:48;;;;;;;65.95;29.75;;;23.80;37.10;;;;;;5087311;28;20205;-71
2021/10/10 06:14:14;;;;;;;89.07;35.97;;;23.80;37.00;;;;;;5088742;28;20110;-69
2021/10/10 06:16:41;;;;;;;79.93;31.17;;;23.90;37.60;;;;;;5088289;28;20106;-69
2021/10/10 06:19:07;;;;;;;62.28;20.23;;;23.80;36.90;;;;;;5071381;28;20568;-69
2021/10/10 06:21:33;;;;;;;32.28;11.75;;;23.80;37.10;;;;;;5088313;28;20088;-71
2021/10/10 06:24:00;;;;;;;25.13;6.03;;;23.80;37.30;;;;;;5088421;28;20131;-69
2021/10/10 06:26:26;;;;;;;9.60;2.83;;;23.70;37.10;;;;;;5087885;28;20159;-69
2021/10/10 06:28:53;;;;;;;7.75;2.72;;;23.70;37.10;;;;;;5072175;28;20095;-70
2021/10/10 06:31:19;;;;;;;50.88;20.23;;;23.60;37.10;;;;;;5088369;28;20068;-69
2021/10/10 06:33:45;;;;;;;14.00;3.05;;;23.60;37.10;;;;;;5089370;28;20080;-70
2021/10/10 06:36:13;;;;;;;10.13;3.38;;;23.60;36.80;;;;;;5071330;28;20076;-69
2021/10/10 06:38:40;;;;;;;9.30;2.40;;;23.60;36.80;;;;;;5088870;28;20144;-67
2021/10/10 06:41:06;;;;;;;8.63;2.13;;;23.60;36.90;;;;;;5087033;28;20108;-68
2021/10/10 06:43:33;;;;;;;6.18;2.15;;;23.60;37.20;;;;;;5089170;28;20514;-68
2021/10/10 06:45:59;;;;;;;10.10;2.92;;;23.50;37.00;;;;;;5089669;28;20196;-70
2021/10/10 06:48:25;;;;;;;12.55;5.05;;;23.60;41.70;;;;;;5087725;28;20565;-69
2021/10/10 06:50:52;;;;;;;13.57;5.88;;;23.50;37.20;;;;;;5087196;28;20584;-69
2021/10/10 06:53:18;;;;;;;7.88;2.55;;;23.60;37.20;;;;;;5088314;28;20072;-69
2021/10/10 06:55:44;;;;;;;9.95;4.22;;;23.50;37.20;;;;;;5087955;28;20075;-68
2021/10/10 06:58:11;;;;;;;9.13;2.90;;;23.50;37.30;;;;;;5087972;28;20072;-70
2021/10/10 07:00:37;;;;;;;8.13;3.00;;;23.40;37.20;;;;;;5087620;28;20192;-69
2021/10/10 07:03:03;;;;;;;7.35;2.47;;;23.40;37.10;;;;;;5088197;28;20069;-70
2021/10/10 07:05:30;;;;;;;18.20;5.20;;;23.40;37.20;;;;;;5090303;28;20079;-69
2021/10/10 07:07:56;;;;;;;14.77;4.43;;;23.40;37.20;;;;;;5070849;28;20123;-69
2021/10/10 07:10:22;;;;;;;11.07;3.88;;;23.40;37.30;;;;;;5087323;28;20096;-69
2021/10/10 07:12:49;;;;;;;18.55;9.48;;;23.40;37.50;;;;;;5086911;28;20100;-68
2021/10/10 07:15:16;;;;;;;11.50;4.38;;;23.30;37.60;;;;;;5086816;28;20069;-69
2021/10/10 07:17:43;;;;;;;15.68;5.63;;;23.30;37.70;;;;;;5070634;28;20523;-69
2021/10/10 07:20:17;;;;;;;17.15;5.90;;;23.30;37.80;;;;;;5087989;28;20076;-68
2021/10/10 07:25:11;;;;;;;18.98;7.57;;;23.20;37.90;;;;;;5088523;28;20545;-69
2021/10/10 07:27:42;;;;;;;12.13;3.22;;;23.20;37.80;;;;;;5092610;28;20069;-68
2021/10/10 07:30:11;;;;;;;34.88;15.70;;;23.20;38.10;;;;;;5070986;28;20167;-68
2021/10/10 07:32:38;;;;;;;10.82;3.10;;;23.10;38.10;;;;;;5087225;28;20076;-69
2021/10/10 07:35:06;;;;;;;13.95;3.53;;;23.10;38.40;;;;;;5087695;28;20403;-70
2021/10/10 07:37:32;;;;;;;13.27;3.75;;;23.00;38.60;;;;;;5087590;28;20069;-70
2021/10/10 07:39:59;;;;;;;11.40;3.13;;;22.90;38.40;;;;;;5086750;28;20137;-69
2021/10/10 07:42:25;;;;;;;8.20;2.10;;;22.80;38.90;;;;;;5086728;28;20084;-67
2021/10/10 07:44:54;;;;;;;8.18;2.33;;;22.80;39.00;;;;;;5088467;28;20426;-71
2021/10/10 07:49:54;;;;;;;10.48;2.55;;;22.70;38.50;;;;;;5088278;28;20635;-67
2021/10/10 07:52:21;;;;;;;6.35;2.80;;;22.30;49.30;;;;;;5088609;28;20104;-68
2021/10/10 07:54:47;;;;;;;15.40;4.28;;;22.50;46.60;;;;;;5087467;28;20134;-67
2021/10/10 07:57:13;;;;;;;17.95;5.15;;;22.60;39.60;;;;;;5087480;28;20079;-67
2021/10/10 07:59:39;;;;;;;;;;;22.50;39.60;;;;;;5087632;28;20103;-66
2021/10/10 08:02:06;;;;;;;26.25;5.28;;;22.50;39.60;;;;;;5089330;28;19976;-66
2021/10/10 08:04:32;;;;;;;14.80;5.60;;;22.50;39.80;;;;;;5090220;28;20068;-66
2021/10/10 08:06:58;;;;;;;10.30;3.38;;;22.60;39.90;;;;;;5086475;28;20073;-66
2021/10/10 08:09:25;;;;;;;10.15;2.90;;;22.50;38.80;;;;;;5086157;28;20458;-65
2021/10/10 08:11:51;;;;;;;9.65;2.53;;;22.50;38.50;;;;;;5088425;28;20035;-65
2021/10/10 08:14:18;;;;;;;9.82;2.75;;;22.50;38.90;;;;;;5086940;28;20108;-66
2021/10/10 08:16:45;;;;;;;16.67;3.10;;;22.40;39.10;;;;;;5086766;28;20077;-65
2021/10/10 08:19:11;;;;;;;20.55;4.30;;;22.40;39.20;;;;;;5086460;28;20164;-65
2021/10/10 08:21:38;;;;;;;12.40;4.43;;;22.40;39.10;;;;;;5087411;28;20470;-66
2021/10/10 08:24:05;;;;;;;20.48;7.75;;;22.50;39.00;;;;;;5087179;28;20076;-66
2021/10/10 08:26:32;;;;;;;14.57;5.30;;;22.40;39.20;;;;;;5091643;28;20453;-66
2021/10/10 08:28:59;;;;;;;16.70;3.80;;;22.30;39.10;;;;;;5090477;28;20550;-65
2021/10/10 08:31:28;;;;;;;9.48;2.97;;;22.50;41.10;;;;;;5074016;28;20082;-65
2021/10/10 08:33:55;;;;;;;6.65;2.88;;;22.30;39.30;;;;;;5092981;28;20079;-66
2021/10/10 08:36:21;;;;;;;12.23;3.10;;;22.30;39.40;;;;;;5090245;28;20103;-67
2021/10/10 08:38:48;;;;;;;9.38;2.85;;;22.40;39.50;;;;;;5086890;28;20673;-65
2021/10/10 08:41:20;;;;;;;14.45;3.42;;;22.40;39.30;;;;;;5091908;28;20476;-66
2021/10/10 08:43:48;;;;;;;7.07;2.33;;;22.40;39.10;;;;;;5089481;28;20592;-67
2021/10/10 08:46:24;;;;;;;7.28;2.17;;;22.30;38.90;;;;;;5091406;28;21437;-66
2021/10/10 08:48:52;;;;;;;16.45;2.70;;;22.40;39.20;;;;;;5092242;28;20487;-67
2021/10/10 08:51:20;;;;;;;10.73;2.78;;;22.30;38.90;;;;;;5091186;28;20077;-68
2021/10/10 08:53:47;;;;;;;6.20;2.13;;;22.30;38.80;;;;;;5090188;28;20434;-65
2021/10/10 08:56:14;;;;;;;7.53;3.20;;;22.20;38.80;;;;;;5090219;28;20850;-66
2021/10/10 08:58:45;;;;;;;8.65;3.08;;;22.20;38.70;;;;;;5088717;28;20122;-65
2021/10/10 09:01:26;;;;;;;9.13;2.55;;;22.10;38.70;;;;;;5091030;28;20465;-66
2021/10/10 09:03:56;;;;;;;5.85;2.20;;;22.10;38.80;;;;;;5091160;28;20099;-67
2021/10/10 09:06:23;;;;;;;5.72;1.88;;;22.10;43.50;;;;;;5090177;28;20085;-67
2021/10/10 09:08:51;;;;;;;6.63;2.38;;;22.00;38.80;;;;;;5073985;28;20442;-67
2021/10/10 09:11:18;;;;;;;6.90;2.38;;;22.00;39.20;;;;;;5090872;28;20085;-68
2021/10/10 09:13:44;;;;;;;7.53;2.40;;;22.00;39.10;;;;;;5089920;28;20155;-68
2021/10/10 09:16:13;;;;;;;6.80;2.03;;;21.90;38.90;;;;;;5089534;28;20072;-67
2021/10/10 09:18:44;;;;;;;7.13;2.53;;;21.90;39.10;;;;;;5090156;28;20076;-67
2021/10/10 09:21:23;;;;;;;16.42;6.07;;;21.80;39.20;;;;;;5089052;28;20073;-66
2021/10/10 09:23:56;;;;;;;15.30;6.68;;;21.90;39.40;;;;;;5074721;28;20126;-67
2021/10/10 09:26:23;;;;;;;16.85;7.55;;;21.90;39.60;;;;;;5089944;28;20163;-65
2021/10/10 09:28:51;;;;;;;10.50;4.38;;;21.80;39.60;;;;;;5088856;28;20454;-67
2021/10/10 09:31:17;;;;;;;14.55;3.17;;;21.80;39.60;;;;;;5091030;28;20471;-68
2021/10/10 09:33:50;;;;;;;12.13;2.80;;;21.70;39.70;;;;;;5090765;28;20530;-66
2021/10/10 09:36:29;;;;;;;12.73;3.42;;;21.70;40.00;;;;;;5089694;28;20077;-68
2021/10/10 09:41:47;;;;;;;9.57;3.47;;;21.70;40.40;;;;;;5089329;28;20073;-68
2021/10/10 09:44:25;;;;;;;10.77;3.40;;;21.70;40.10;;;;;;5089057;28;20090;-67
2021/10/10 09:46:56;;;;;;;9.45;3.35;;;21.60;40.10;;;;;;5089424;28;20116;-66
2021/10/10 09:49:24;;;;;;;6.70;2.60;;;21.60;40.50;;;;;;5088912;28;20168;-68
2021/10/10 09:51:53;;;;;;;14.30;3.47;;;21.50;40.30;;;;;;5089069;28;20122;-67
2021/10/10 09:54:19;;;;;;;9.55;2.50;;;21.50;40.60;;;;;;5072680;28;20085;-67
2021/10/10 09:57:06;;;;;;;15.30;3.42;;;21.50;40.50;;;;;;5090050;28;20542;-67
2021/10/10 09:59:33;;;;;;;14.40;3.38;;;21.50;40.70;;;;;;5089931;28;20081;-67
2021/10/10 10:01:59;;;;;;;18.67;3.80;;;21.50;40.80;;;;;;5089285;28;20142;-67
2021/10/10 10:04:26;;;;;;;14.85;3.35;;;21.50;41.30;;;;;;5089211;28;20558;-66
2021/10/10 10:06:54;;;;;;;15.75;3.67;;;21.50;41.00;;;;;;5089291;28;20076;-67
2021/10/10 10:09:20;;;;;;;12.60;3.30;;;21.50;41.10;;;;;;5090327;28;20530;-67
2021/10/10 10:11:47;;;;;;;17.88;2.72;;;21.50;41.20;;;;;;5088796;28;20115;-67
2021/10/10 10:14:18;;;;;;;13.88;2.90;;;21.40;41.00;;;;;;5090670;28;20079;-67
2021/10/10 10:16:49;;;;;;;8.13;2.63;;;21.30;40.80;;;;;;5071782;28;20130;-69
2021/10/10 10:19:17;;;;;;;9.35;2.75;;;21.20;40.90;;;;;;5087271;28;20072;-69
2021/10/10 10:21:57;;;;;;;14.85;2.88;;;21.20;41.00;;;;;;5089141;28;20100;-66
2021/10/10 10:24:25;;;;;;;12.70;2.60;;;21.10;40.70;;;;;;5088576;28;20100;-66
2021/10/10 10:26:52;;;;;;;13.70;2.70;;;21.00;40.50;;;;;;5090638;28;20092;-66
2021/10/10 10:29:23;;;;;;;7.25;2.38;;;21.00;40.90;;;;;;5071805;28;20081;-66
2021/10/10 10:31:51;;;;;;;8.98;2.47;;;20.90;40.70;;;;;;5072736;28;20156;-66
2021/10/10 10:34:22;;;;;;;10.60;2.42;;;20.90;40.60;;;;;;5091780;28;20088;-68
2021/10/10 10:36:59;;;;;;;8.75;2.50;;;20.80;40.40;;;;;;5090382;28;20171;-66
2021/10/10 10:39:33;;;;;;;9.35;2.47;;;20.80;40.10;;;;;;5071801;28;20118;-67
2021/10/10 10:42:00;;;;;;;9.07;2.80;;;20.80;40.10;;;;;;5091486;28;20727;-67
2021/10/10 10:44:53;;;;;;;8.90;2.30;;;20.80;40.00;;;;;;5086445;28;20112;-65
2021/10/10 10:47:35;;;;;;;6.03;2.08;;;20.80;39.80;;;;;;5083412;28;20191;-68
2021/10/10 10:50:05;;;;;;;5.38;2.00;;;20.90;39.70;;;;;;5088367;28;20095;-66
2021/10/10 10:52:36;;;;;;;12.20;3.13;;;20.90;39.50;;;;;;5071363;28;20080;-65
2021/10/10 10:55:16;;;;;;;6.32;2.00;;;20.80;39.50;;;;;;5087845;28;20504;-66
2021/10/10 10:58:22;;;;;;;11.77;2.65;;;20.90;39.40;;;;;;5087363;28;20160;-64
2021/10/10 11:01:05;;;;;;;6.13;2.13;;;20.80;39.50;;;;;;5025472;28;20591;-65
2021/10/10 11:03:34;;;;;;;9.25;4.05;;;20.90;39.80;;;;;;5028181;28;20424;-68
2021/10/10 11:06:06;;;;;;;9.10;3.00;;;20.80;39.70;;;;;;5011048;28;20086;-65
2021/10/10 11:08:35;;;;;;;10.77;2.92;;;20.80;40.10;;;;;;5027152;28;20090;-68
2021/10/10 11:11:04;;;;;;;8.35;2.10;;;20.70;39.80;;;;;;5010441;28;20090;-67
2021/10/10 11:13:39;;;;;;;8.57;2.70;;;20.60;39.70;;;;;;5027517;28;20536;-66
2021/10/10 11:16:11;;;;;;;11.80;3.05;;;20.60;39.30;;;;;;5027726;28;20082;-65
2021/10/10 11:18:55;;;;;;;8.65;2.70;;;20.60;38.50;;;;;;5010435;28;20178;-67
2021/10/10 11:21:44;;;;;;;10.88;2.30;;;20.60;38.10;;;;;;5026773;28;20073;-68
2021/10/10 11:24:17;;;;;;;8.90;2.35;;;20.60;38.00;;;;;;5026800;28;20124;-68
2021/10/10 11:26:44;;;;;;;10.18;2.45;;;20.70;38.10;;;;;;5010012;28;20086;-67
2021/10/10 11:29:13;;;;;;;8.63;2.17;;;20.70;38.00;;;;;;5022479;28;20098;-66
2021/10/10 11:31:40;;;;;;;5.47;2.90;;;20.70;37.80;;;;;;5026265;28;20696;-66
2021/10/10 11:34:09;;;;;;;11.25;3.40;;;20.80;37.70;;;;;;5026878;28;20451;-65
2021/10/10 11:36:38;;;;;;;13.40;3.85;;;20.80;37.60;;;;;;5042617;28;20129;-66
2021/10/10 11:39:21;;;;;;;14.52;2.92;;;20.70;37.50;;;;;;5087149;28;20112;-66
2021/10/10 11:41:57;;;;;;;7.75;2.40;;;20.70;37.50;;;;;;5087444;28;20092;-66
2021/10/10 11:44:38;;;;;;;6.43;2.25;;;20.70;37.30;;;;;;5087241;28;20072;-65
2021/10/10 11:47:08;;;;;;;7.32;2.30;;;20.70;37.10;;;;;;5070690;28;20092;-66
2021/10/10 11:49:41;;;;;;;5.07;2.00;;;20.70;36.90;;;;;;5086109;28;20085;-66
2021/10/10 11:52:32;;;;;;;10.88;2.50;;;20.80;37.10;;;;;;5088563;28;20573;-67
2021/10/10 11:55:08;;;;;;;6.75;2.60;;;20.80;37.10;;;;;;5087428;28;20088;-68
2021/10/10 11:57:35;;;;;;;12.13;4.03;;;20.80;37.00;;;;;;5087828;28;20167;-66
2021/10/10 12:00:07;;;;;;;8.85;2.42;;;20.80;37.00;;;;;;5088615;28;20423;-66
2021/10/10 12:02:38;;;;;;;5.20;2.60;;;20.70;37.10;;;;;;5091235;28;20092;-65
2021/10/10 12:05:10;;;;;;;9.20;2.40;;;20.70;37.30;;;;;;5093343;28;20083;-66
2021/10/10 12:07:38;;;;;;;12.10;2.30;;;20.70;37.80;;;;;;5075514;28;20430;-66
2021/10/10 12:10:07;;;;;;;8.40;2.22;;;20.60;38.50;;;;;;5090993;28;20101;-66
2021/10/10 12:12:34;;;;;;;16.45;2.63;;;20.60;38.70;;;;;;5091073;28;20068;-65
2021/10/10 12:15:01;;;;;;;7.75;2.15;;;20.60;38.90;;;;;;5090858;28;20065;-66
2021/10/10 12:17:47;;;;;;;6.60;2.28;;;20.60;38.80;;;;;;5090047;28;20150;-68
2021/10/10 12:20:16;;;;;;;5.63;2.20;;;20.60;39.10;;;;;;5091607;28;20068;-65
2021/10/10 12:22:55;;;;;;;13.85;2.75;;;20.70;39.60;;;;;;5090683;28;20071;-66
2021/10/10 12:25:26;;;;;;;5.90;2.10;;;20.60;39.90;;;;;;5090520;28;20537;-66
2021/10/10 12:28:13;;;;;;;8.20;2.17;;;20.60;40.00;;;;;;5090385;28;20076;-66
2021/10/10 12:30:55;;;;;;;7.25;2.20;;;20.60;40.10;;;;;;5090349;28;20076;-66
2021/10/10 12:33:26;;;;;;;8.25;2.17;;;20.60;40.20;;;;;;5090313;28;20488;-66
2021/10/10 12:36:00;;;;;;;7.60;2.20;;;20.60;40.10;;;;;;5074297;28;20597;-67
2021/10/10 12:38:31;;;;;;;8.00;2.03;;;20.60;40.00;;;;;;5089347;28;20166;-67
2021/10/10 12:40:59;;;;;;;6.00;1.70;;;20.60;40.20;;;;;;5091439;28;20077;-66
2021/10/10 12:43:41;;;;;;;10.00;2.30;;;20.60;40.00;;;;;;5092570;28;20110;-68
2021/10/10 12:46:08;;;;;;;7.10;1.95;;;20.60;40.20;;;;;;5091166;28;20092;-66
2021/10/10 12:48:34;;;;;;;6.88;2.22;;;20.60;40.50;;;;;;5090584;28;20097;-66
2021/10/10 12:51:01;;;;;;;6.03;2.00;;;20.60;40.90;;;;;;5091558;28;20076;-66
2021/10/10 12:53:29;;;;;;;6.60;2.25;;;20.60;41.40;;;;;;5090056;28;20096;-68
2021/10/10 12:56:20;;;;;;;7.88;1.95;;;20.60;41.90;;;;;;5091795;28;20561;-66
2021/10/10 12:58:53;;;;;;;8.65;1.90;;;20.60;42.20;;;;;;5073377;28;20098;-67
2021/10/10 13:01:32;;;;;;;6.43;2.33;;;20.50;42.50;;;;;;5088898;28;20069;-66
2021/10/10 13:04:04;;;;;;;12.23;2.20;;;20.50;42.90;;;;;;5074703;28;20100;-68
2021/10/10 13:06:30;;;;;;;7.47;1.90;;;20.50;43.00;;;;;;5089250;28;20083;-66